createdAt,value
2022-12-08T00:00:12.721Z,97242.19
2022-12-08T00:03:01.979Z,97238.87
2022-12-08T00:05:50.419Z,97238.94
2022-12-08T00:08:37.644Z,97242.48
2022-12-08T00:11:12.488Z,97247.08
2022-12-08T00:13:43.273Z,97241.99
2022-12-08T00:16:12.676Z,97243.61
2022-12-08T00:18:43.041Z,97242.17
2022-12-08T00:21:11.917Z,97243.63
2022-12-08T00:23:41.756Z,97243.90
2022-12-08T00:26:11.360Z,97242.89
2022-12-08T00:28:40.442Z,97248.02
2022-12-08T00:31:11.866Z,97244.14
2022-12-08T00:33:41.186Z,97244.48
2022-12-08T00:36:13.360Z,97247.93
2022-12-08T00:38:45.050Z,97245.96
2022-12-08T00:41:17.144Z,97248.44
2022-12-08T00:43:46.498Z,97255.69
2022-12-08T00:46:15.973Z,97257.98
2022-12-08T00:48:45.918Z,97261.13
2022-12-08T00:51:16.561Z,97257.59
2022-12-08T00:53:46.531Z,97257.85
2022-12-08T00:56:16.912Z,97257.44
2022-12-08T00:58:46.969Z,97261.21
2022-12-08T01:01:17.849Z,97259.06
2022-12-08T01:03:48.818Z,97259.61
2022-12-08T01:06:18.639Z,97263.36
2022-12-08T01:08:50.008Z,97267.64
2022-12-08T01:11:20.850Z,97272.10
2022-12-08T01:13:51.135Z,97274.35
2022-12-08T01:16:30.741Z,97271.34
2022-12-08T01:19:01.937Z,97265.95
2022-12-08T01:21:32.228Z,97268.59
2022-12-08T01:24:03.654Z,97267.14
2022-12-08T01:26:34.030Z,97267.05
2022-12-08T01:29:05.992Z,97266.55
2022-12-08T01:31:36.269Z,97269.17
2022-12-08T01:34:06.392Z,97265.84
2022-12-08T01:36:40.289Z,97265.55
2022-12-08T01:39:17.341Z,97264.98
2022-12-08T01:41:50.096Z,97263.85
2022-12-08T01:44:20.067Z,97264.58
2022-12-08T01:46:51.162Z,97261.02
2022-12-08T01:49:29.786Z,97264.61
2022-12-08T01:52:06.088Z,97260.72
2022-12-08T01:54:42.096Z,97260.95
2022-12-08T01:57:19.126Z,97260.42
2022-12-08T01:59:59.203Z,97258.48
2022-12-08T02:02:35.550Z,97259.80
2022-12-08T02:05:08.865Z,97260.98
2022-12-08T02:07:40.332Z,97265.41
2022-12-08T02:10:15.239Z,97268.00
2022-12-08T02:12:47.902Z,97266.63
2022-12-08T02:15:20.169Z,97268.98
2022-12-08T02:18:25.680Z,97264.86
2022-12-08T02:21:13.075Z,97269.54
2022-12-08T02:24:10.376Z,97270.66
2022-12-08T02:27:12.466Z,97270.57
2022-12-08T02:30:11.137Z,97270.27
2022-12-08T02:32:57.448Z,97272.63
2022-12-08T02:35:54.754Z,97274.16
2022-12-08T02:38:46.380Z,97277.23
2022-12-08T02:41:26.072Z,97272.67
2022-12-08T02:44:06.484Z,97276.77
2022-12-08T02:46:55.098Z,97277.12
2022-12-08T02:49:38.106Z,97278.78
2022-12-08T02:52:16.366Z,97281.79
2022-12-08T02:54:53.030Z,97282.76
2022-12-08T02:57:59.172Z,97282.41
2022-12-08T03:00:37.235Z,97290.01
2022-12-08T03:03:16.195Z,97292.08
2022-12-08T03:05:57.336Z,97285.50
2022-12-08T03:08:37.835Z,97287.09
2022-12-08T03:11:21.319Z,97289.61
2022-12-08T03:14:02.103Z,97287.80
2022-12-08T03:16:36.363Z,97285.14
2022-12-08T03:19:20.833Z,97277.34
2022-12-08T03:21:55.523Z,97276.18
2022-12-08T03:24:25.127Z,97271.77
2022-12-08T03:27:00.988Z,97273.83
2022-12-08T03:29:32.704Z,97273.54
2022-12-08T03:32:13.299Z,97276.96
2022-12-08T03:34:47.616Z,97279.52
2022-12-08T03:37:17.732Z,97283.35
2022-12-08T03:39:47.926Z,97285.69
2022-12-08T03:42:17.961Z,97282.91
2022-12-08T03:44:47.587Z,97281.82
2022-12-08T03:47:16.861Z,97282.70
2022-12-08T03:49:47.405Z,97281.41
2022-12-08T03:52:18.341Z,97278.21
2022-12-08T03:54:47.914Z,97278.91
2022-12-08T03:57:18.179Z,97279.94
2022-12-08T03:59:47.546Z,97277.23
2022-12-08T04:02:17.253Z,97276.92
2022-12-08T04:04:46.589Z,97273.73
2022-12-08T04:07:16.505Z,97275.10
2022-12-08T04:09:46.557Z,97274.48
2022-12-08T04:12:17.063Z,97272.51
2022-12-08T04:14:45.947Z,97271.93
2022-12-08T04:17:14.955Z,97274.87
2022-12-08T04:19:45.153Z,97275.44
2022-12-08T04:22:15.066Z,97271.90
2022-12-08T04:24:44.563Z,97270.05
2022-12-08T04:27:14.685Z,97271.08
2022-12-08T04:29:44.253Z,97268.70
2022-12-08T04:32:14.598Z,97264.17
2022-12-08T04:34:44.855Z,97261.45
2022-12-08T04:37:14.786Z,97257.36
2022-12-08T04:39:44.389Z,97257.83
2022-12-08T04:42:13.761Z,97254.18
2022-12-08T04:44:43.904Z,97255.28
2022-12-08T04:47:13.766Z,97257.90
2022-12-08T04:49:43.112Z,97264.29
2022-12-08T04:52:12.637Z,97261.20
2022-12-08T04:54:41.493Z,97270.30
2022-12-08T04:57:11.686Z,97278.09
2022-12-08T04:59:41.014Z,97280.53
2022-12-08T05:02:10.582Z,97284.65
2022-12-08T05:04:41.052Z,97290.70
2022-12-08T05:07:10.147Z,97292.51
2022-12-08T05:09:39.049Z,97293.56
2022-12-08T05:12:09.387Z,97292.02
2022-12-08T05:14:38.549Z,97287.20
2022-12-08T05:17:09.886Z,97288.30
2022-12-08T05:19:39.747Z,97290.89
2022-12-08T05:22:09.182Z,97296.36
2022-12-08T05:24:45.671Z,97301.70
2022-12-08T05:27:18.006Z,97306.34
2022-12-08T05:29:48.666Z,97311.05
2022-12-08T05:32:18.204Z,97312.20
2022-12-08T05:34:47.497Z,97311.57
2022-12-08T05:37:17.264Z,97313.52
2022-12-08T05:39:47.205Z,97313.59
2022-12-08T05:42:20.511Z,97317.55
2022-12-08T05:44:53.408Z,97319.77
2022-12-08T05:47:22.306Z,97314.14
2022-12-08T05:49:51.782Z,97311.75
2022-12-08T05:52:20.784Z,97311.38
2022-12-08T05:54:49.689Z,97306.39
2022-12-08T05:57:18.353Z,97307.39
2022-12-08T05:59:47.845Z,97310.10
2022-12-08T06:02:17.148Z,97312.84
2022-12-08T06:04:46.779Z,97313.89
2022-12-08T06:07:16.526Z,97307.07
2022-12-08T06:09:46.298Z,97309.83
2022-12-08T06:12:16.559Z,97315.34
2022-12-08T06:14:45.401Z,97318.48
2022-12-08T06:17:14.503Z,97321.17
2022-12-08T06:19:43.761Z,97321.09
2022-12-08T06:22:12.797Z,97323.44
2022-12-08T06:24:41.886Z,97315.36
2022-12-08T06:27:10.780Z,97319.95
2022-12-08T06:29:39.668Z,97317.73
2022-12-08T06:32:08.615Z,97321.77
2022-12-08T06:34:38.260Z,97328.14
2022-12-08T06:37:07.477Z,97325.51
2022-12-08T06:39:36.458Z,97326.45
2022-12-08T06:42:23.881Z,97329.06
2022-12-08T06:44:52.868Z,97328.06
2022-12-08T06:47:26.168Z,97329.45
2022-12-08T06:49:56.078Z,97326.90
2022-12-08T06:52:25.177Z,97329.95
2022-12-08T06:54:54.280Z,97325.02
2022-12-08T06:57:24.599Z,97325.31
2022-12-08T06:59:54.007Z,97327.83
2022-12-08T07:02:22.741Z,97330.96
2022-12-08T07:04:52.182Z,97341.36
2022-12-08T07:07:20.665Z,97344.81
2022-12-08T07:09:49.562Z,97347.56
2022-12-08T07:12:18.751Z,97350.83
2022-12-08T07:14:47.845Z,97352.38
2022-12-08T07:17:16.872Z,97350.69
2022-12-08T07:19:45.832Z,97351.55
2022-12-08T07:22:14.622Z,97355.11
2022-12-08T07:24:43.308Z,97357.63
2022-12-08T07:27:11.992Z,97363.23
2022-12-08T07:29:41.192Z,97365.75
2022-12-08T07:32:10.283Z,97361.70
2022-12-08T07:34:38.867Z,97359.11
2022-12-08T07:37:08.274Z,97357.74
2022-12-08T07:39:37.363Z,97358.68
2022-12-08T07:42:06.354Z,97359.73
2022-12-08T07:44:35.560Z,97367.88
2022-12-08T07:47:05.574Z,97375.52
2022-12-08T07:49:34.430Z,97373.53
2022-12-08T07:52:04.073Z,97374.55
2022-12-08T07:54:32.857Z,97368.33
2022-12-08T07:57:03.901Z,97365.39
2022-12-08T07:59:33.329Z,97369.84
2022-12-08T08:02:23.026Z,97373.48
2022-12-08T08:04:52.357Z,97370.86
2022-12-08T08:07:21.574Z,97367.24
2022-12-08T08:09:52.573Z,97360.08
2022-12-08T08:12:36.475Z,97361.21
2022-12-08T08:15:08.292Z,97368.06
2022-12-08T08:17:38.490Z,97371.03
2022-12-08T08:20:08.756Z,97379.45
2022-12-08T08:22:37.558Z,97373.67
2022-12-08T08:25:06.743Z,97367.25
2022-12-08T08:27:36.655Z,97370.43
2022-12-08T08:30:08.158Z,97367.34
2022-12-08T08:32:38.302Z,97365.85
2022-12-08T08:35:07.690Z,97366.52
2022-12-08T08:37:36.637Z,97365.23
2022-12-08T08:40:06.416Z,97364.98
2022-12-08T08:42:35.325Z,97365.85
2022-12-08T08:45:04.936Z,97360.16
2022-12-08T08:47:33.513Z,97356.11
2022-12-08T08:50:02.673Z,97351.41
2022-12-08T08:52:31.921Z,97343.81
2022-12-08T08:55:00.800Z,97345.25
2022-12-08T08:57:29.691Z,97341.16
2022-12-08T08:59:58.783Z,97338.79
2022-12-08T09:02:28.130Z,97337.05
2022-12-08T09:04:57.031Z,97332.27
2022-12-08T09:07:26.586Z,97334.84
2022-12-08T09:10:00.034Z,97333.25
2022-12-08T09:12:30.610Z,97322.83
2022-12-08T09:14:59.402Z,97317.94
2022-12-08T09:17:27.982Z,97317.96
2022-12-08T09:19:57.086Z,97321.77
2022-12-08T09:22:25.762Z,97323.27
2022-12-08T09:24:54.554Z,97322.95
2022-12-08T09:27:23.242Z,97315.83
2022-12-08T09:29:52.034Z,97309.19
2022-12-08T09:32:20.810Z,97308.38
2022-12-08T09:34:52.239Z,97303.77
2022-12-08T09:37:21.286Z,97302.86
2022-12-08T09:39:50.050Z,97299.48
2022-12-08T09:42:55.289Z,97298.66
2022-12-08T09:45:27.143Z,97291.73
2022-12-08T09:48:13.345Z,97289.44
2022-12-08T09:50:48.786Z,97289.38
2022-12-08T09:53:35.345Z,97286.15
2022-12-08T09:56:13.612Z,97280.05
2022-12-08T09:58:57.038Z,97280.40
2022-12-08T10:01:34.830Z,97280.36
2022-12-08T10:04:04.537Z,97283.13
2022-12-08T10:07:19.508Z,97286.26
2022-12-08T10:09:57.308Z,97287.79
2022-12-08T10:12:28.860Z,97288.17
2022-12-08T10:15:14.234Z,97286.90
2022-12-08T10:17:49.787Z,97286.23
2022-12-08T10:20:26.461Z,97285.56
2022-12-08T10:23:30.167Z,97282.55
2022-12-08T10:26:02.440Z,97278.66
2022-12-08T10:28:34.005Z,97273.36
2022-12-08T10:31:02.597Z,97269.65
2022-12-08T10:33:33.100Z,97266.09
2022-12-08T10:36:05.267Z,97262.69
2022-12-08T10:38:39.009Z,97265.45
2022-12-08T10:41:10.421Z,97265.86
2022-12-08T10:43:48.386Z,97254.55
2022-12-08T10:46:22.981Z,97243.52
2022-12-08T10:49:10.471Z,97237.74
2022-12-08T10:51:42.457Z,97231.17
2022-12-08T10:54:29.255Z,97226.58
2022-12-08T10:56:58.548Z,97223.06
2022-12-08T10:59:27.948Z,97222.86
2022-12-08T11:01:57.569Z,97215.17
2022-12-08T11:04:36.183Z,97214.89
2022-12-08T11:07:06.618Z,97213.09
2022-12-08T11:09:53.112Z,97216.98
2022-12-08T11:12:23.111Z,97219.61
2022-12-08T11:14:59.392Z,97215.11
2022-12-08T11:17:35.956Z,97206.96
2022-12-08T11:20:25.018Z,97196.37
2022-12-08T11:22:56.724Z,97177.83
2022-12-08T11:25:27.397Z,97169.48
2022-12-08T11:28:02.102Z,97162.88
2022-12-08T11:30:41.460Z,97162.36
2022-12-08T11:33:30.735Z,97160.44
2022-12-08T11:36:09.783Z,97155.18
2022-12-08T11:38:44.481Z,97149.98
2022-12-08T11:41:22.917Z,97144.40
2022-12-08T11:44:28.496Z,97134.08
2022-12-08T11:47:07.183Z,97139.96
2022-12-08T11:49:42.174Z,97138.89
2022-12-08T11:52:19.844Z,97137.30
2022-12-08T11:54:52.168Z,97134.42
2022-12-08T11:57:23.524Z,97131.16
2022-12-08T11:59:55.281Z,97127.73
2022-12-08T12:02:27.572Z,97127.86
2022-12-08T12:05:08.211Z,97125.30
2022-12-08T12:08:11.867Z,97122.97
2022-12-08T12:11:12.960Z,97124.50
2022-12-08T12:14:10.018Z,97133.14
2022-12-08T12:16:47.771Z,97129.21
2022-12-08T12:19:19.576Z,97127.27
2022-12-08T12:21:55.729Z,97123.62
2022-12-08T12:24:36.027Z,97122.77
2022-12-08T12:27:25.573Z,97118.98
2022-12-08T12:29:59.370Z,97116.99
2022-12-08T12:32:49.249Z,97113.15
2022-12-08T12:35:32.372Z,97115.34
2022-12-08T12:38:31.082Z,97113.18
2022-12-08T12:41:05.115Z,97108.66
2022-12-08T12:43:36.210Z,97099.98
2022-12-08T12:46:23.079Z,97098.73
2022-12-08T12:48:52.946Z,97105.93
2022-12-08T12:51:45.996Z,97110.80
2022-12-08T12:54:26.562Z,97111.27
2022-12-08T12:56:56.344Z,97104.68
2022-12-08T12:59:32.747Z,97099.38
2022-12-08T13:02:03.083Z,97096.89
2022-12-08T13:04:36.253Z,97088.70
2022-12-08T13:07:05.756Z,97079.98
2022-12-08T13:09:39.511Z,97071.90
2022-12-08T13:12:12.041Z,97067.69
2022-12-08T13:14:51.846Z,97066.33
2022-12-08T13:17:35.244Z,97063.52
2022-12-08T13:20:07.457Z,97064.34
2022-12-08T13:22:54.709Z,97061.98
2022-12-08T13:25:45.507Z,97060.17
2022-12-08T13:28:30.487Z,97059.55
2022-12-08T13:30:59.332Z,97061.27
2022-12-08T13:33:42.385Z,97057.20
2022-12-08T13:36:26.428Z,97064.54
2022-12-08T13:38:58.269Z,97068.15
2022-12-08T13:41:43.564Z,97066.51
2022-12-08T13:47:59.642Z,97066.70
2022-12-08T13:59:24.642Z,97074.41
2022-12-08T14:01:53.377Z,97070.40
2022-12-08T14:07:14.043Z,97055.23
2022-12-08T14:09:43.549Z,97053.23
2022-12-08T14:12:28.010Z,97056.44
2022-12-08T14:15:07.816Z,97063.12
2022-12-08T14:17:39.933Z,97057.31
2022-12-08T14:20:57.968Z,97052.23
2022-12-08T14:23:24.504Z,97046.59
2022-12-08T14:25:53.997Z,97048.38
2022-12-08T14:28:23.510Z,97060.88
2022-12-08T14:30:52.649Z,97066.30
2022-12-08T14:33:21.504Z,97064.98
2022-12-08T14:35:56.769Z,97068.92
2022-12-08T14:38:26.427Z,97071.09
2022-12-08T14:41:05.262Z,97082.95
2022-12-08T14:43:34.535Z,97092.40
2022-12-08T14:46:19.654Z,97090.29
2022-12-08T14:48:49.847Z,97083.67
2022-12-08T14:51:24.172Z,97081.30
2022-12-08T14:54:00.688Z,97077.65
2022-12-08T14:56:40.482Z,97065.98
2022-12-08T14:59:25.783Z,97046.71
2022-12-08T15:02:09.430Z,97037.50
2022-12-08T15:04:40.558Z,97037.09
2022-12-08T15:07:22.020Z,97046.79
2022-12-08T15:10:11.424Z,97053.39
2022-12-08T15:12:40.486Z,97050.45
2022-12-08T15:15:09.074Z,97049.61
2022-12-08T15:17:42.672Z,97052.60
2022-12-08T15:20:35.340Z,97051.09
2022-12-08T15:23:04.618Z,97053.40
2022-12-08T15:25:33.818Z,97055.73
2022-12-08T15:28:03.439Z,97049.62
2022-12-08T15:30:32.013Z,97045.86
2022-12-08T15:33:00.589Z,97047.30
2022-12-08T15:35:29.377Z,97050.19
2022-12-08T15:37:57.961Z,97045.88
2022-12-08T15:40:27.569Z,97045.48
2022-12-08T15:42:56.255Z,97049.59
2022-12-08T15:45:32.732Z,97048.60
2022-12-08T15:48:01.205Z,97045.11
2022-12-08T15:50:29.890Z,97042.23
2022-12-08T15:52:58.473Z,97035.89
2022-12-08T15:55:27.463Z,97027.97
2022-12-08T16:00:53.845Z,97038.48
2022-12-08T16:09:38.837Z,97030.16
2022-12-08T16:13:19.931Z,97025.61
2022-12-08T16:18:17.634Z,97017.17
2022-12-08T16:23:42.863Z,97000.23
2022-12-08T16:29:08.902Z,96987.46
2022-12-08T16:31:37.501Z,96982.98
2022-12-08T16:34:06.324Z,96980.05
2022-12-08T16:36:34.904Z,96974.89
2022-12-08T16:39:03.956Z,96969.02
2022-12-08T16:41:51.219Z,96970.16
2022-12-08T16:44:19.806Z,96973.68
2022-12-08T16:46:48.490Z,96969.80
2022-12-08T16:49:17.889Z,96967.61
2022-12-08T16:51:46.881Z,96959.77
2022-12-08T16:54:15.466Z,96959.38
2022-12-08T16:56:44.153Z,96955.83
2022-12-08T16:59:13.147Z,96963.11
2022-12-08T17:01:42.122Z,96968.93
2022-12-08T17:07:00.104Z,96975.61
2022-12-08T17:09:33.075Z,96980.30
2022-12-08T17:12:04.400Z,96975.27
2022-12-08T17:14:36.184Z,96976.27
2022-12-08T17:17:05.128Z,96972.73
2022-12-08T17:19:34.371Z,96969.89
2022-12-08T17:22:02.957Z,96972.41
2022-12-08T17:24:32.154Z,96972.36
2022-12-08T17:27:04.638Z,96967.46
2022-12-08T17:29:34.969Z,96969.86
2022-12-08T17:32:03.851Z,96963.97
2022-12-08T17:34:32.642Z,96963.23
2022-12-08T17:37:01.427Z,96962.40
2022-12-08T17:39:30.104Z,96965.98
2022-12-08T17:41:58.736Z,96964.47
2022-12-08T17:44:28.497Z,96955.14
2022-12-08T17:46:58.205Z,96959.79
2022-12-08T17:49:29.983Z,96956.58
2022-12-08T17:52:01.270Z,96951.70
2022-12-08T17:54:30.406Z,96948.70
2022-12-08T17:56:59.299Z,96945.41
2022-12-08T17:59:29.007Z,96940.77
2022-12-08T18:01:58.855Z,96941.35
2022-12-08T18:04:28.218Z,96933.89
2022-12-08T18:06:59.668Z,96930.92
2022-12-08T18:09:30.826Z,96931.46
2022-12-08T18:11:59.497Z,96925.31
2022-12-08T18:14:28.084Z,96923.86
2022-12-08T18:16:56.619Z,96916.17
2022-12-08T18:19:26.578Z,96912.88
2022-12-08T18:21:55.062Z,96912.18
2022-12-08T18:24:24.360Z,96908.94
2022-12-08T18:26:52.946Z,96911.66
2022-12-08T18:29:22.936Z,96916.95
2022-12-08T18:31:52.567Z,96919.67
2022-12-08T18:34:21.353Z,96929.12
2022-12-08T18:36:50.039Z,96932.41
2022-12-08T18:39:24.358Z,96931.00
2022-12-08T18:41:54.373Z,96925.09
2022-12-08T18:44:23.161Z,96926.60
2022-12-08T18:46:51.643Z,96927.27
2022-12-08T18:49:20.944Z,96930.35
2022-12-08T18:51:49.423Z,96930.88
2022-12-08T18:54:18.114Z,96929.55
2022-12-08T18:56:46.800Z,96930.04
2022-12-08T18:59:16.301Z,96931.73
2022-12-08T19:01:44.953Z,96927.31
2022-12-08T19:04:28.379Z,96932.15
2022-12-08T19:06:58.226Z,96932.69
2022-12-08T19:09:27.112Z,96931.92
2022-12-08T19:11:56.729Z,96934.34
2022-12-08T19:14:28.583Z,96932.98
2022-12-08T19:16:58.096Z,96933.53
2022-12-08T19:19:28.416Z,96936.73
2022-12-08T19:21:57.104Z,96937.10
2022-12-08T19:24:26.364Z,96928.54
2022-12-08T19:26:54.990Z,96926.05
2022-12-08T19:29:23.667Z,96924.71
2022-12-08T19:31:52.870Z,96924.22
2022-12-08T19:34:21.756Z,96927.61
2022-12-08T19:36:50.353Z,96923.46
2022-12-08T19:39:40.337Z,96925.02
2022-12-08T19:42:38.908Z,96937.17
2022-12-08T19:45:20.340Z,96953.86
2022-12-08T19:47:49.082Z,96961.95
2022-12-08T19:50:36.594Z,96966.31
2022-12-08T19:53:13.601Z,96966.92
2022-12-08T19:55:43.613Z,96967.52
2022-12-08T19:58:12.194Z,96966.73
2022-12-08T20:00:41.704Z,96962.65
2022-12-08T20:03:14.408Z,96965.86
2022-12-08T20:05:44.202Z,96965.50
2022-12-08T20:08:13.132Z,96966.83
2022-12-08T20:10:43.708Z,96964.77
2022-12-08T20:13:33.177Z,96963.77
2022-12-08T20:16:01.688Z,96960.71
2022-12-08T20:18:30.548Z,96960.14
2022-12-08T20:20:59.645Z,96966.72
2022-12-08T20:23:28.121Z,96966.88
2022-12-08T20:25:57.221Z,96961.61
2022-12-08T20:28:25.916Z,96963.86
2022-12-08T20:30:54.439Z,96967.58
2022-12-08T20:33:22.988Z,96961.61
2022-12-08T20:36:03.159Z,96966.87
2022-12-08T20:38:32.227Z,96965.88
2022-12-08T20:41:01.002Z,96964.71
2022-12-08T20:43:29.587Z,96965.77
2022-12-08T20:45:58.281Z,96963.95
2022-12-08T20:48:27.236Z,96965.94
2022-12-08T20:50:56.166Z,96963.48
2022-12-08T20:53:25.089Z,96961.43
2022-12-08T20:55:53.732Z,96962.78
2022-12-08T20:58:22.649Z,96965.86
2022-12-08T21:00:51.272Z,96961.73
2022-12-08T21:03:20.366Z,96963.13
2022-12-08T21:05:51.188Z,96963.61
2022-12-08T21:08:20.422Z,96959.64
2022-12-08T21:10:58.477Z,96956.50
2022-12-08T21:13:27.622Z,96956.75
2022-12-08T21:15:56.772Z,96959.31
2022-12-08T21:18:26.048Z,96962.02
2022-12-08T21:21:02.934Z,96960.80
2022-12-08T21:23:31.937Z,96957.01
2022-12-08T21:26:00.639Z,96953.05
2022-12-08T21:28:29.527Z,96945.89
2022-12-08T21:30:58.472Z,96939.86
2022-12-08T21:33:27.795Z,96940.52
2022-12-08T21:36:11.788Z,96940.31
2022-12-08T21:38:41.192Z,96938.12
2022-12-08T21:41:13.902Z,96936.02
2022-12-08T21:43:43.507Z,96935.45
2022-12-08T21:46:21.229Z,96935.71
2022-12-08T21:48:50.642Z,96937.25
2022-12-08T21:51:19.407Z,96940.96
2022-12-08T21:53:48.754Z,96940.31
2022-12-08T21:56:18.125Z,96941.66
2022-12-08T21:58:47.427Z,96942.09
2022-12-08T22:01:16.161Z,96942.88
2022-12-08T22:03:45.572Z,96942.41
2022-12-08T22:06:14.914Z,96943.34
2022-12-08T22:08:43.848Z,96938.92
2022-12-08T22:11:13.564Z,96933.52
2022-12-08T22:13:43.467Z,96927.64
2022-12-08T22:16:14.968Z,96926.26
2022-12-08T22:18:44.215Z,96929.34
2022-12-08T22:21:17.994Z,96925.08
2022-12-08T22:23:47.120Z,96918.67
2022-12-08T22:26:15.888Z,96915.73
2022-12-08T22:28:45.449Z,96920.91
2022-12-08T22:31:17.388Z,96915.84
2022-12-08T22:33:46.503Z,96912.71
2022-12-08T22:36:18.469Z,96912.44
2022-12-08T22:38:47.876Z,96911.88
2022-12-08T22:41:18.180Z,96903.20
2022-12-08T22:43:48.209Z,96904.21
2022-12-08T22:46:20.185Z,96905.69
2022-12-08T22:48:50.089Z,96903.70
2022-12-08T22:51:19.768Z,96908.42
2022-12-08T22:53:49.100Z,96908.62
2022-12-08T22:56:18.691Z,96908.48
2022-12-08T22:58:47.925Z,96909.93
2022-12-08T23:01:31.345Z,96911.58
2022-12-08T23:04:01.548Z,96913.61
2022-12-08T23:06:31.645Z,96911.89
2022-12-08T23:09:00.671Z,96905.61
2022-12-08T23:11:31.987Z,96906.60
2022-12-08T23:14:01.578Z,96912.93
2022-12-08T23:16:30.452Z,96916.20
2022-12-08T23:18:59.676Z,96919.15
2022-12-08T23:21:30.186Z,96915.33
2022-12-08T23:24:01.521Z,96914.54
2022-12-08T23:26:33.071Z,96919.66
2022-12-08T23:29:02.264Z,96917.77
2022-12-08T23:31:31.903Z,96916.19
2022-12-08T23:34:02.617Z,96916.67
2022-12-08T23:36:32.058Z,96917.57
2022-12-08T23:39:01.504Z,96924.23
2022-12-08T23:41:30.702Z,96921.92
2022-12-08T23:43:59.982Z,96922.55
2022-12-08T23:46:28.784Z,96923.50
2022-12-08T23:48:58.843Z,96921.89
2022-12-08T23:51:28.825Z,96921.46
2022-12-08T23:53:58.031Z,96921.05
2022-12-08T23:56:30.501Z,96918.97
2022-12-08T23:59:01.303Z,96920.64
